Airport View

Enter AWOS ICAO identifier for current METAR.

ex. KFNL

KTQH 221835Z AUTO 01011G18KT 10SM SCT020 SCT029 25/21 A3007 RMK AO2

22 Jul 2019 18:44

Frequency: 118.425

Phone: 918-453-2729

Other Area AWOS: KMKO - KSLG - KJSV - KGCM

TAF KXNA 221720Z 2218/2318 36013KT P6SM VCSH FEW010 BKN026 TEMPO 2218/2222 BKN010 FM222200 01012G19KT P6SM SCT025 BKN035 FM230100 01010KT P6SM SKC